createdAt,value
2023-05-21T00:01:17.994Z,3.40
2023-05-21T00:03:46.330Z,3.40
2023-05-21T00:06:15.640Z,3.80
2023-05-21T00:08:43.889Z,3.30
2023-05-21T00:11:11.897Z,3.50
2023-05-21T00:13:39.782Z,3.60
2023-05-21T00:16:08.679Z,3.50
2023-05-21T00:18:39.825Z,3.30
2023-05-21T00:21:08.229Z,3.80
2023-05-21T00:23:37.744Z,3.30
2023-05-21T00:26:05.808Z,3.00
2023-05-21T00:28:33.770Z,3.30
2023-05-21T00:31:02.309Z,3.10
2023-05-21T00:33:31.042Z,3.30
2023-05-21T00:36:00.292Z,3.30
2023-05-21T00:38:28.601Z,3.10
2023-05-21T00:40:57.046Z,3.30
2023-05-21T00:43:26.761Z,3.50
2023-05-21T00:45:56.689Z,3.60
2023-05-21T00:48:25.623Z,3.30
2023-05-21T00:50:53.629Z,3.00
2023-05-21T00:53:22.119Z,3.70
2023-05-21T00:55:51.400Z,3.60
2023-05-21T00:58:21.137Z,3.40
2023-05-21T01:00:49.612Z,3.60
2023-05-21T01:03:17.845Z,3.40
2023-05-21T01:05:46.940Z,3.50
2023-05-21T01:08:15.194Z,3.80
2023-05-21T01:10:44.661Z,3.40
2023-05-21T01:13:13.116Z,4.20
2023-05-21T01:15:41.174Z,3.70
2023-05-21T01:18:09.936Z,3.80
2023-05-21T01:20:38.096Z,3.90
2023-05-21T01:23:06.903Z,3.50
2023-05-21T01:25:35.913Z,3.70
2023-05-21T01:28:04.300Z,3.90
2023-05-21T01:30:32.414Z,3.90
2023-05-21T01:33:15.319Z,3.60
2023-05-21T01:36:27.006Z,3.60
2023-05-21T01:39:35.761Z,3.90
2023-05-21T01:42:09.187Z,3.80
2023-05-21T01:44:39.100Z,3.70
2023-05-21T01:47:07.663Z,4.00
2023-05-21T01:49:35.942Z,4.20
2023-05-21T01:52:05.074Z,3.60
2023-05-21T01:54:33.301Z,3.90
2023-05-21T01:57:02.458Z,3.90
2023-05-21T01:59:31.092Z,4.40
2023-05-21T02:01:59.217Z,3.80
2023-05-21T02:04:27.666Z,3.90
2023-05-21T02:06:55.935Z,3.80
2023-05-21T02:09:24.296Z,3.80
2023-05-21T02:11:52.662Z,4.30
2023-05-21T02:14:20.802Z,4.10
2023-05-21T02:16:48.822Z,4.00
2023-05-21T02:19:17.547Z,3.90
2023-05-21T02:21:46.219Z,4.20
2023-05-21T02:24:14.496Z,4.30
2023-05-21T02:26:43.566Z,4.20
2023-05-21T02:29:11.841Z,4.10
2023-05-21T02:31:40.042Z,4.10
2023-05-21T02:34:08.228Z,4.10
2023-05-21T02:36:36.680Z,4.20
2023-05-21T02:39:04.745Z,3.80
2023-05-21T02:41:32.910Z,4.10
2023-05-21T02:44:01.192Z,3.90
2023-05-21T02:46:29.458Z,4.00
2023-05-21T02:48:57.704Z,4.00
2023-05-21T02:51:25.653Z,3.70
2023-05-21T02:53:53.743Z,3.80
2023-05-21T02:56:21.796Z,3.90
2023-05-21T02:58:50.064Z,3.60
2023-05-21T03:01:18.613Z,3.90
2023-05-21T03:03:47.001Z,3.60
2023-05-21T03:06:16.451Z,3.80
2023-05-21T03:08:44.526Z,3.80
2023-05-21T03:11:12.888Z,3.80
2023-05-21T03:13:42.875Z,3.90
2023-05-21T03:16:11.340Z,3.90
2023-05-21T03:18:39.446Z,3.80
2023-05-21T03:21:07.504Z,3.80
2023-05-21T03:23:35.720Z,3.70
2023-05-21T03:26:04.889Z,3.80
2023-05-21T03:28:34.068Z,4.00
2023-05-21T03:31:02.850Z,3.60
2023-05-21T03:33:51.440Z,3.90
2023-05-21T03:36:24.021Z,3.70
2023-05-21T03:38:52.160Z,3.60
2023-05-21T03:41:21.558Z,4.00
2023-05-21T03:43:53.205Z,3.80
2023-05-21T03:46:22.656Z,3.90
2023-05-21T03:49:00.531Z,3.50
2023-05-21T03:51:30.950Z,3.70
2023-05-21T03:54:00.157Z,3.60
2023-05-21T03:56:28.642Z,3.50
2023-05-21T03:58:56.685Z,3.60
2023-05-21T04:01:24.777Z,3.20
2023-05-21T04:03:53.086Z,4.00
2023-05-21T04:06:23.606Z,3.40
2023-05-21T04:08:52.493Z,3.60
2023-05-21T04:11:21.159Z,3.70
2023-05-21T04:13:50.376Z,3.90
2023-05-21T04:16:19.578Z,3.60
2023-05-21T04:18:48.409Z,3.50
2023-05-21T04:21:16.953Z,3.70
2023-05-21T04:23:45.530Z,3.10
2023-05-21T04:26:28.430Z,4.00
2023-05-21T04:28:57.267Z,3.30
2023-05-21T04:31:25.530Z,3.60
2023-05-21T04:33:53.675Z,3.40
2023-05-21T04:36:21.750Z,3.50
2023-05-21T04:38:50.051Z,3.30
2023-05-21T04:41:19.365Z,3.50
2023-05-21T04:43:47.563Z,3.40
2023-05-21T04:46:16.209Z,3.40
2023-05-21T04:48:45.390Z,3.50
2023-05-21T04:51:15.194Z,3.20
2023-05-21T04:53:43.622Z,3.10
2023-05-21T04:56:11.655Z,3.30
2023-05-21T04:58:41.158Z,3.00
2023-05-21T05:01:16.014Z,3.10
2023-05-21T05:03:48.441Z,3.00
2023-05-21T05:06:20.317Z,3.20
2023-05-21T05:08:51.386Z,2.80
2023-05-21T05:11:23.494Z,2.70
2023-05-21T05:13:56.597Z,2.70
2023-05-21T05:16:27.903Z,2.60
2023-05-21T05:19:00.026Z,2.60
2023-05-21T05:21:31.704Z,2.70
2023-05-21T05:24:03.467Z,2.30
2023-05-21T05:26:33.360Z,2.40
2023-05-21T05:29:04.261Z,2.70
2023-05-21T05:31:38.491Z,2.30
2023-05-21T05:34:10.825Z,2.40
2023-05-21T05:36:42.791Z,2.20
2023-05-21T05:39:14.999Z,2.40
2023-05-21T05:41:46.595Z,2.50
2023-05-21T05:44:18.415Z,2.50
2023-05-21T05:46:50.068Z,2.20
2023-05-21T05:49:21.854Z,2.40
2023-05-21T05:51:54.037Z,2.30
2023-05-21T05:54:26.724Z,2.30
2023-05-21T05:56:58.680Z,2.40
2023-05-21T05:59:30.135Z,2.30
2023-05-21T06:02:03.722Z,2.10
2023-05-21T06:04:37.141Z,2.20
2023-05-21T06:07:08.626Z,2.20
2023-05-21T06:09:40.381Z,2.10
2023-05-21T06:12:12.334Z,2.20
2023-05-21T06:14:45.965Z,2.00
2023-05-21T06:17:14.019Z,2.10
2023-05-21T06:19:43.151Z,2.30
2023-05-21T06:22:11.747Z,2.30
2023-05-21T06:24:40.228Z,2.20
2023-05-21T06:27:08.757Z,2.20
2023-05-21T06:29:37.250Z,2.20
2023-05-21T06:32:06.276Z,2.00
2023-05-21T06:34:34.386Z,2.40
2023-05-21T06:37:02.525Z,1.90
2023-05-21T06:39:31.152Z,2.10
2023-05-21T06:42:00.920Z,2.20
2023-05-21T06:44:55.412Z,2.00
2023-05-21T06:47:29.634Z,2.00
2023-05-21T06:50:00.245Z,2.20
2023-05-21T06:52:28.413Z,1.90
2023-05-21T06:54:56.776Z,2.10
2023-05-21T06:57:25.747Z,2.10
2023-05-21T06:59:54.247Z,2.20
2023-05-21T07:02:22.782Z,2.10
2023-05-21T07:04:52.381Z,1.90
2023-05-21T07:07:21.411Z,2.30
2023-05-21T07:09:49.394Z,2.00
2023-05-21T07:12:18.434Z,2.20
2023-05-21T07:14:46.674Z,2.30
2023-05-21T07:17:14.711Z,2.00
2023-05-21T07:19:43.168Z,1.90
2023-05-21T07:22:13.198Z,2.00
2023-05-21T07:24:41.674Z,1.90
2023-05-21T07:27:24.816Z,2.10
2023-05-21T07:29:55.215Z,2.00
2023-05-21T07:32:23.621Z,2.00
2023-05-21T07:34:54.179Z,2.00
2023-05-21T07:37:23.369Z,2.10
2023-05-21T07:39:51.502Z,1.90
2023-05-21T07:42:19.538Z,2.40
2023-05-21T07:44:47.773Z,2.20
2023-05-21T07:47:15.854Z,1.90
2023-05-21T07:49:44.139Z,2.20
2023-05-21T07:52:12.393Z,2.00
2023-05-21T07:54:40.736Z,2.30
2023-05-21T07:57:09.240Z,2.20
2023-05-21T07:59:58.660Z,2.30
2023-05-21T08:02:26.847Z,2.30
2023-05-21T08:04:55.290Z,2.30
2023-05-21T08:07:23.849Z,2.40
2023-05-21T08:09:54.390Z,2.60
2023-05-21T08:12:23.172Z,2.50
2023-05-21T08:14:51.338Z,2.50
2023-05-21T08:17:19.304Z,2.60
2023-05-21T08:19:47.486Z,2.50
2023-05-21T08:22:16.096Z,2.30
2023-05-21T08:24:46.801Z,2.50
2023-05-21T08:27:16.311Z,2.30
2023-05-21T08:29:44.594Z,2.60
2023-05-21T08:32:12.656Z,2.50
2023-05-21T08:34:41.644Z,2.40
2023-05-21T08:37:27.565Z,2.60
2023-05-21T08:40:02.888Z,2.20
2023-05-21T08:42:49.926Z,2.50
2023-05-21T08:45:24.185Z,2.50
2023-05-21T08:47:57.623Z,2.10
2023-05-21T08:50:28.579Z,2.30
2023-05-21T08:52:59.291Z,2.50
2023-05-21T08:55:28.177Z,2.30
2023-05-21T08:57:56.562Z,2.10
2023-05-21T09:00:25.156Z,2.20
2023-05-21T09:02:56.497Z,2.70
2023-05-21T09:05:28.598Z,2.20
2023-05-21T09:08:07.486Z,2.20
2023-05-21T09:10:59.232Z,2.30
2023-05-21T09:13:34.042Z,2.20
2023-05-21T09:16:06.862Z,2.00
2023-05-21T09:18:35.023Z,2.40
2023-05-21T09:21:31.924Z,2.30
2023-05-21T09:24:25.437Z,2.10
2023-05-21T09:26:57.492Z,2.00
2023-05-21T09:29:26.976Z,2.10
2023-05-21T09:31:55.910Z,2.50
2023-05-21T09:34:25.717Z,2.10
2023-05-21T09:36:58.018Z,2.20
2023-05-21T09:39:32.189Z,2.30
2023-05-21T09:42:02.931Z,2.20
2023-05-21T09:44:31.539Z,2.20
2023-05-21T09:46:59.908Z,2.30
2023-05-21T09:49:28.702Z,2.10
2023-05-21T09:51:59.207Z,2.20
2023-05-21T09:54:33.968Z,2.20
2023-05-21T09:57:02.994Z,2.10
2023-05-21T09:59:41.745Z,2.10
2023-05-21T10:02:21.572Z,2.20
2023-05-21T10:04:51.875Z,2.20
2023-05-21T10:07:26.689Z,2.30
2023-05-21T10:09:57.530Z,2.30
2023-05-21T10:12:27.849Z,2.30
2023-05-21T10:15:09.584Z,2.10
2023-05-21T10:17:39.615Z,2.10
2023-05-21T10:20:11.075Z,2.10
2023-05-21T10:22:41.187Z,2.40
2023-05-21T10:25:11.088Z,2.20
2023-05-21T10:27:39.649Z,2.20
2023-05-21T10:30:08.821Z,2.10
2023-05-21T10:32:38.996Z,2.30
2023-05-21T10:35:09.383Z,2.20
2023-05-21T10:37:38.581Z,2.20
2023-05-21T10:40:07.760Z,2.20
2023-05-21T10:42:35.787Z,2.20
2023-05-21T10:45:20.181Z,2.00
2023-05-21T10:48:16.305Z,2.10
2023-05-21T10:51:11.717Z,1.90
2023-05-21T10:56:36.729Z,2.20
2023-05-21T10:59:29.764Z,2.30
2023-05-21T11:01:58.203Z,2.10
2023-05-21T11:04:30.120Z,2.10
2023-05-21T11:07:02.433Z,2.10
2023-05-21T11:09:30.712Z,2.10
2023-05-21T11:12:01.297Z,2.10
2023-05-21T11:14:43.381Z,2.20
2023-05-21T11:17:40.113Z,2.00
2023-05-21T11:20:14.349Z,2.00
2023-05-21T11:22:42.837Z,2.00
2023-05-21T11:25:12.750Z,2.10
2023-05-21T11:27:43.741Z,2.30
2023-05-21T11:30:20.114Z,2.20
2023-05-21T11:33:07.834Z,2.30
2023-05-21T11:35:58.431Z,2.00
2023-05-21T11:38:31.776Z,2.20
2023-05-21T11:41:05.790Z,2.00
2023-05-21T11:43:33.901Z,2.20
2023-05-21T11:46:02.556Z,2.40
2023-05-21T11:48:33.751Z,3.00
2023-05-21T11:51:05.587Z,2.60
2023-05-21T11:53:41.106Z,2.60
2023-05-21T11:56:15.653Z,2.90
2023-05-21T11:58:47.929Z,2.60
2023-05-21T12:01:32.051Z,2.80
2023-05-21T12:04:06.752Z,3.00
2023-05-21T12:06:36.129Z,5.30
2023-05-21T12:09:05.033Z,23.40
2023-05-21T12:11:33.216Z,40.70
2023-05-21T12:14:01.384Z,39.30
2023-05-21T12:16:29.626Z,41.00
2023-05-21T12:18:57.998Z,36.20
2023-05-21T12:21:29.835Z,31.50
2023-05-21T12:23:58.918Z,26.00
2023-05-21T12:26:27.918Z,23.50
2023-05-21T12:28:57.631Z,17.10
2023-05-21T12:31:27.689Z,14.00
2023-05-21T12:33:55.821Z,12.30
2023-05-21T12:36:30.610Z,10.60
2023-05-21T12:38:59.057Z,9.40
2023-05-21T12:41:28.077Z,8.90
2023-05-21T12:43:56.048Z,7.80
2023-05-21T12:46:25.073Z,7.90
2023-05-21T12:48:55.583Z,7.60
2023-05-21T12:51:23.698Z,6.70
2023-05-21T12:53:51.755Z,6.80
2023-05-21T12:56:19.733Z,6.80
2023-05-21T12:58:50.942Z,5.60
2023-05-21T13:01:22.056Z,6.10
2023-05-21T13:03:51.381Z,5.40
2023-05-21T13:06:19.600Z,4.90
2023-05-21T13:08:47.970Z,5.20
2023-05-21T13:11:16.212Z,4.80
2023-05-21T13:13:44.243Z,5.10
2023-05-21T13:16:12.339Z,5.40
2023-05-21T13:18:40.679Z,4.80
2023-05-21T13:21:08.723Z,4.80
2023-05-21T13:23:37.067Z,4.60
2023-05-21T13:26:06.973Z,4.00
2023-05-21T13:28:35.355Z,4.60
2023-05-21T13:31:03.414Z,4.50
2023-05-21T13:33:32.373Z,4.50
2023-05-21T13:36:00.689Z,4.50
2023-05-21T13:38:28.737Z,4.10
2023-05-21T13:40:56.912Z,4.00
2023-05-21T13:43:25.079Z,3.70
2023-05-21T13:45:53.388Z,3.90
2023-05-21T13:48:21.531Z,3.80
2023-05-21T13:50:49.548Z,4.00
2023-05-21T13:53:17.600Z,4.30
2023-05-21T13:55:45.985Z,4.70
2023-05-21T13:58:13.955Z,4.60
2023-05-21T14:00:43.237Z,4.00
2023-05-21T14:03:11.556Z,3.90
2023-05-21T14:05:39.879Z,3.70
2023-05-21T14:08:08.411Z,3.80
2023-05-21T14:10:36.855Z,3.70
2023-05-21T14:13:18.400Z,3.40
2023-05-21T14:15:48.783Z,3.70
2023-05-21T14:18:16.931Z,3.70
2023-05-21T14:20:45.003Z,3.70
2023-05-21T14:23:13.135Z,3.60
2023-05-21T14:25:42.748Z,3.60
2023-05-21T14:28:11.167Z,3.30
2023-05-21T14:30:39.396Z,3.50
2023-05-21T14:33:07.376Z,3.40
2023-05-21T14:35:35.863Z,3.10
2023-05-21T14:38:04.402Z,3.50
2023-05-21T14:40:32.442Z,3.10
2023-05-21T14:43:01.412Z,3.20
2023-05-21T14:45:29.714Z,3.10
2023-05-21T14:47:57.857Z,3.20
2023-05-21T14:50:26.379Z,3.50
2023-05-21T14:52:54.828Z,3.20
2023-05-21T14:55:23.228Z,3.00
2023-05-21T14:57:51.527Z,3.10
2023-05-21T15:00:19.601Z,3.00
2023-05-21T15:02:48.264Z,2.80
2023-05-21T15:05:16.463Z,2.80
2023-05-21T15:07:44.713Z,3.10
2023-05-21T15:10:32.148Z,2.80
2023-05-21T15:13:00.206Z,3.10
2023-05-21T15:15:28.521Z,2.70
2023-05-21T15:17:57.951Z,2.60
2023-05-21T15:20:26.233Z,2.80
2023-05-21T15:23:05.092Z,2.70
2023-05-21T15:25:42.586Z,2.60
2023-05-21T15:28:12.251Z,2.60
2023-05-21T15:30:41.024Z,2.50
2023-05-21T15:33:09.369Z,2.30
2023-05-21T15:35:37.896Z,2.50
2023-05-21T15:38:06.739Z,2.20
2023-05-21T15:40:34.906Z,2.60
2023-05-21T15:43:02.984Z,2.60
2023-05-21T15:45:31.084Z,2.40
2023-05-21T15:47:59.214Z,2.30
2023-05-21T15:50:27.329Z,2.50
2023-05-21T15:52:55.414Z,2.50
2023-05-21T15:55:23.553Z,2.40
2023-05-21T15:57:51.487Z,2.70
2023-05-21T16:00:19.636Z,2.50
2023-05-21T16:02:48.130Z,2.30
2023-05-21T16:05:16.490Z,2.20
2023-05-21T16:07:44.590Z,2.60
2023-05-21T16:10:13.129Z,2.30
2023-05-21T16:12:41.188Z,2.20
2023-05-21T16:15:09.866Z,2.10
2023-05-21T16:17:38.030Z,2.40
2023-05-21T16:20:07.756Z,2.40
2023-05-21T16:22:35.825Z,2.20
2023-05-21T16:25:06.069Z,2.30
2023-05-21T16:27:36.684Z,2.20
2023-05-21T16:30:07.496Z,2.20
2023-05-21T16:32:35.450Z,2.20
2023-05-21T16:35:04.519Z,2.20
2023-05-21T16:37:32.735Z,2.20
2023-05-21T16:40:00.832Z,2.20
2023-05-21T16:42:29.147Z,2.20
2023-05-21T16:44:57.714Z,2.20
2023-05-21T16:47:25.805Z,2.30
2023-05-21T16:49:55.883Z,2.30
2023-05-21T16:52:24.465Z,2.10
2023-05-21T16:54:52.737Z,2.20
2023-05-21T16:57:21.491Z,2.30
2023-05-21T16:59:49.497Z,2.20
2023-05-21T17:02:17.602Z,2.30
2023-05-21T17:04:46.340Z,2.20
2023-05-21T17:07:16.809Z,2.10
2023-05-21T17:09:44.880Z,2.20
2023-05-21T17:12:13.391Z,2.10
2023-05-21T17:14:41.633Z,2.10
2023-05-21T17:17:10.010Z,2.30
2023-05-21T17:19:38.791Z,2.40
2023-05-21T17:22:06.886Z,2.20
2023-05-21T17:24:35.112Z,2.30
2023-05-21T17:27:04.036Z,2.20
2023-05-21T17:29:32.657Z,2.30
2023-05-21T17:32:00.791Z,2.20
2023-05-21T17:34:32.546Z,2.50
2023-05-21T17:37:00.839Z,3.00
2023-05-21T17:39:29.299Z,3.10
2023-05-21T17:41:57.914Z,4.10
2023-05-21T17:44:26.379Z,3.90
2023-05-21T17:46:56.717Z,4.60
2023-05-21T17:49:25.473Z,4.70
2023-05-21T17:51:53.782Z,5.50
2023-05-21T17:54:21.844Z,5.90
2023-05-21T17:56:50.007Z,6.00
2023-05-21T17:59:18.281Z,6.00
2023-05-21T18:01:47.066Z,5.40
2023-05-21T18:04:15.714Z,4.90
2023-05-21T18:06:44.579Z,4.60
2023-05-21T18:09:14.519Z,4.70
2023-05-21T18:11:44.795Z,5.50
2023-05-21T18:14:13.158Z,5.70
2023-05-21T18:16:41.772Z,6.90
2023-05-21T18:19:10.639Z,5.80
2023-05-21T18:21:38.925Z,5.30
2023-05-21T18:24:07.623Z,5.40
2023-05-21T18:26:35.670Z,4.80
2023-05-21T18:29:03.739Z,4.70
2023-05-21T18:31:31.970Z,4.20
2023-05-21T18:34:01.846Z,4.30
2023-05-21T18:36:30.334Z,3.90
2023-05-21T18:38:58.698Z,4.20
2023-05-21T18:41:26.660Z,4.20
2023-05-21T18:43:54.665Z,4.70
2023-05-21T18:46:23.258Z,4.90
2023-05-21T18:48:51.246Z,5.10
2023-05-21T18:51:19.504Z,5.00
2023-05-21T18:53:48.054Z,4.50
2023-05-21T18:56:17.467Z,3.90
2023-05-21T18:58:46.449Z,3.80
2023-05-21T19:01:14.714Z,4.30
2023-05-21T19:03:42.914Z,3.70
2023-05-21T19:06:11.369Z,3.50
2023-05-21T19:08:41.402Z,3.40
2023-05-21T19:11:09.462Z,3.40
2023-05-21T19:13:37.757Z,3.50
2023-05-21T19:16:11.188Z,3.50
2023-05-21T19:18:43.388Z,3.00
2023-05-21T19:21:11.964Z,3.60
2023-05-21T19:23:51.758Z,3.30
2023-05-21T19:26:23.025Z,3.20
2023-05-21T19:28:54.003Z,2.80
2023-05-21T19:31:23.902Z,3.00
2023-05-21T19:33:52.554Z,3.20
2023-05-21T19:36:22.048Z,3.00
2023-05-21T19:38:51.275Z,3.10
2023-05-21T19:41:22.175Z,3.30
2023-05-21T19:43:51.269Z,2.80
2023-05-21T19:46:20.694Z,3.20
2023-05-21T19:48:51.203Z,3.30
2023-05-21T19:51:19.379Z,3.10
2023-05-21T19:53:47.774Z,3.10
2023-05-21T19:56:17.160Z,3.00
2023-05-21T19:58:48.336Z,2.70
2023-05-21T20:01:17.997Z,2.90
2023-05-21T20:03:46.374Z,3.00
2023-05-21T20:06:17.121Z,2.90
2023-05-21T20:08:45.242Z,3.10
2023-05-21T20:11:13.679Z,3.40
2023-05-21T20:13:42.387Z,2.80
2023-05-21T20:16:12.856Z,2.70
2023-05-21T20:18:41.885Z,2.70
2023-05-21T20:21:10.795Z,2.80
2023-05-21T20:23:38.870Z,2.90
2023-05-21T20:26:07.349Z,2.90
2023-05-21T20:28:36.093Z,2.80
2023-05-21T20:31:05.048Z,2.90
2023-05-21T20:33:38.733Z,3.10
2023-05-21T20:36:08.662Z,3.10
2023-05-21T20:38:38.367Z,3.00
2023-05-21T20:41:06.613Z,2.90
2023-05-21T20:43:37.563Z,3.20
2023-05-21T20:46:06.498Z,2.80
2023-05-21T20:48:35.411Z,2.80
2023-05-21T20:51:04.756Z,2.60
2023-05-21T20:53:33.951Z,2.90
2023-05-21T20:56:02.083Z,2.70
2023-05-21T20:58:30.204Z,2.70
2023-05-21T21:00:58.508Z,2.80
2023-05-21T21:03:29.853Z,2.80
2023-05-21T21:06:01.275Z,2.90
2023-05-21T21:08:29.534Z,2.60
2023-05-21T21:10:57.654Z,2.70
2023-05-21T21:13:25.791Z,2.90
2023-05-21T21:15:54.195Z,2.80
2023-05-21T21:18:22.649Z,2.60
2023-05-21T21:20:51.584Z,2.90
2023-05-21T21:23:20.578Z,2.80
2023-05-21T21:25:48.608Z,2.80
2023-05-21T21:28:16.606Z,3.10
2023-05-21T21:30:45.099Z,2.70
2023-05-21T21:33:14.602Z,2.60
2023-05-21T21:35:42.940Z,2.60
2023-05-21T21:38:11.052Z,2.70
2023-05-21T21:40:39.195Z,2.70
2023-05-21T21:43:07.597Z,2.60
2023-05-21T21:45:35.693Z,2.90
2023-05-21T21:48:04.137Z,2.80
2023-05-21T21:50:32.132Z,2.70
2023-05-21T21:53:01.393Z,2.50
2023-05-21T21:55:29.914Z,2.60
2023-05-21T21:57:58.013Z,2.70
2023-05-21T22:00:27.035Z,2.60
2023-05-21T22:02:55.392Z,2.90
2023-05-21T22:05:23.721Z,2.80
2023-05-21T22:07:52.278Z,2.50
2023-05-21T22:10:21.487Z,2.80
2023-05-21T22:12:49.549Z,2.60
2023-05-21T22:15:22.903Z,2.60
2023-05-21T22:17:52.164Z,2.70
2023-05-21T22:20:26.047Z,2.40
2023-05-21T22:22:55.382Z,2.60
2023-05-21T22:25:24.125Z,2.40
2023-05-21T22:27:52.939Z,2.60
2023-05-21T22:30:21.132Z,3.00
2023-05-21T22:32:49.173Z,2.70
2023-05-21T22:35:17.281Z,2.80
2023-05-21T22:37:45.734Z,2.50
2023-05-21T22:40:14.238Z,2.70
2023-05-21T22:42:42.748Z,2.50
2023-05-21T22:45:12.001Z,2.70
2023-05-21T22:47:40.072Z,2.50
2023-05-21T22:50:10.269Z,2.50
2023-05-21T22:52:38.606Z,2.90
2023-05-21T22:55:08.042Z,2.70
2023-05-21T22:57:36.713Z,2.90
2023-05-21T23:00:07.473Z,2.50
2023-05-21T23:02:35.621Z,2.60
2023-05-21T23:05:04.669Z,2.70
2023-05-21T23:07:32.861Z,2.70
2023-05-21T23:10:01.012Z,2.60
2023-05-21T23:12:29.127Z,2.60
2023-05-21T23:14:57.158Z,3.00
2023-05-21T23:17:25.299Z,2.60
2023-05-21T23:19:53.322Z,2.80
2023-05-21T23:22:21.939Z,2.50
2023-05-21T23:24:51.186Z,2.60
2023-05-21T23:27:19.374Z,2.80
2023-05-21T23:29:47.435Z,2.70
2023-05-21T23:32:15.381Z,2.60
2023-05-21T23:34:43.396Z,2.60
2023-05-21T23:37:11.487Z,2.40
2023-05-21T23:39:39.972Z,2.50
2023-05-21T23:42:08.134Z,2.80
2023-05-21T23:44:36.195Z,2.70
2023-05-21T23:47:04.995Z,2.90
2023-05-21T23:49:33.137Z,2.70
2023-05-21T23:52:01.925Z,2.90
2023-05-21T23:54:30.112Z,2.70
2023-05-21T23:56:58.170Z,2.50
2023-05-21T23:59:26.354Z,2.60
